Hickory Regional Airport
KHKY : now visible

Airfield :











YOU CAN JOIN US ON...

 
LOGIN :

Register | Disclaimer

   EN    FR    IT 

 









Legend :    VFR   Marginal VFR   IFR   Intensive IFR   Very Intensive IFR
Visi :
Ceiling :
>= 8 km
>= 3000ft
5 to 8 km
1000 to 3000 ft
1500m to 5 km
500 to 1000 ft
800 to 1500m
200 to 500 ft
< 800m
< 200 ft
Symbols :   Thunderstorms  Fog  Heavy snow  Heavy precipitations  Wind > 20 kt






- Airport Elevation : 1190 ft
- IATA code : HKY


KHKY - Hickory Regional

CURRENT METAR :
  • 080753Z AUTO 05005KT 10SM OVC045 05/M01 A3040 RMK AO2 SLP286 T00501006

EXPIRED METARs :
  • 080653Z AUTO 07005KT 10SM OVC045 06/00 A3039 RMK AO2 SLP283 T00560000
  • 080553Z AUTO 06005KT 10SM OVC046 06/01 A3040 RMK AO2 SLP283 T00610006 10083 20061 50009

TAF KHKY
Valid from the 08 at 06:00 until the 09 at 06:00 UTC


080534Z 0806/0906 06005KT P6SM OVC045
FM081700 07003KT P6SM SCT045 SCT250
FM090200 VRB02KT P6SM BKN050



MET'MAP, your aeronautical weather chart ! - Copyright ORBIFLY December 2007 - Disclaimer

ORBIFLY MET'MAP TEAM :

Programming & Development : Alexandra Zaïnal
Concept & original design : Baudouin d'Aumeries
Assistance for programming : Marc-Olivier Méhu
Technical & hardware support : Manuel Goepfert

Contact : metmap@orbifly.com




SOURCES & CREDITS :

   NOAA       Earth
Advisory